createdAt,value
2018-07-28T00:00:33.593Z,49.30
2018-07-28T00:01:07.479Z,49.40
2018-07-28T00:01:41.281Z,49.30
2018-07-28T00:02:15.155Z,49.50
2018-07-28T00:02:49.990Z,49.50
2018-07-28T00:03:23.987Z,49.60
2018-07-28T00:03:58.080Z,49.50
2018-07-28T00:04:32.163Z,49.60
2018-07-28T00:05:07.321Z,49.50
2018-07-28T00:05:41.373Z,49.80
2018-07-28T00:06:15.140Z,49.70
2018-07-28T00:06:49.190Z,49.80
2018-07-28T00:07:22.983Z,49.70
2018-07-28T00:07:57.013Z,49.70
2018-07-28T00:08:31.018Z,49.70
2018-07-28T00:09:08.276Z,49.70
2018-07-28T00:09:42.020Z,49.60
2018-07-28T00:10:15.895Z,49.80
2018-07-28T00:10:49.620Z,49.70
2018-07-28T00:11:23.420Z,49.70
2018-07-28T00:11:57.203Z,49.60
2018-07-28T00:12:31.241Z,49.70
2018-07-28T00:13:05.208Z,49.70
2018-07-28T00:13:39.118Z,49.80
2018-07-28T00:14:12.832Z,49.90
2018-07-28T00:14:46.640Z,49.90
2018-07-28T00:15:20.589Z,50.10
2018-07-28T00:15:54.482Z,50.10
2018-07-28T00:16:28.238Z,50.20
2018-07-28T00:17:01.893Z,50.20
2018-07-28T00:17:35.607Z,49.90
2018-07-28T00:18:09.839Z,49.90
2018-07-28T00:18:43.956Z,49.90
2018-07-28T00:19:17.928Z,49.90
2018-07-28T00:19:51.572Z,50.10
2018-07-28T00:20:25.447Z,50.00
2018-07-28T00:20:59.304Z,50.00
2018-07-28T00:21:33.404Z,50.00
2018-07-28T00:22:07.530Z,50.20
2018-07-28T00:22:41.703Z,50.20
2018-07-28T00:23:15.459Z,50.20
2018-07-28T00:23:49.246Z,50.20
2018-07-28T00:24:23.088Z,50.30
2018-07-28T00:24:57.097Z,50.20
2018-07-28T00:25:38.136Z,50.20
2018-07-28T00:26:17.715Z,50.10
2018-07-28T00:26:51.879Z,50.00
2018-07-28T00:27:25.688Z,50.00
2018-07-28T00:27:59.759Z,50.00
2018-07-28T00:28:33.845Z,50.10
2018-07-28T00:29:07.608Z,50.10
2018-07-28T00:29:41.386Z,50.10
2018-07-28T00:30:15.195Z,50.10
2018-07-28T00:30:49.140Z,50.20
2018-07-28T00:31:23.071Z,50.20
2018-07-28T00:31:56.931Z,50.20
2018-07-28T00:32:30.835Z,50.30
2018-07-28T00:33:04.634Z,50.30
2018-07-28T00:33:38.876Z,50.30
2018-07-28T00:34:12.793Z,50.30
2018-07-28T00:34:46.832Z,50.40
2018-07-28T00:35:20.503Z,50.20
2018-07-28T00:35:54.691Z,50.50
2018-07-28T00:36:28.784Z,50.40
2018-07-28T00:37:02.746Z,50.40
2018-07-28T00:37:36.999Z,50.30
2018-07-28T00:38:10.655Z,50.30
2018-07-28T00:38:44.591Z,50.40
2018-07-28T00:39:18.319Z,50.40
2018-07-28T00:39:52.232Z,50.30
2018-07-28T00:40:26.140Z,50.40
2018-07-28T00:41:00.236Z,50.30
2018-07-28T00:41:33.893Z,50.20
2018-07-28T00:42:07.795Z,50.30
2018-07-28T00:42:41.731Z,50.40
2018-07-28T00:43:15.758Z,50.60
2018-07-28T00:43:49.836Z,50.50
2018-07-28T00:44:23.628Z,50.50
2018-07-28T00:44:57.380Z,50.50
2018-07-28T00:45:31.244Z,50.50
2018-07-28T00:46:05.061Z,50.50
2018-07-28T00:46:38.987Z,50.60
2018-07-28T00:47:13.044Z,50.60
2018-07-28T00:47:46.918Z,50.60
2018-07-28T00:48:20.617Z,50.50
2018-07-28T00:48:54.599Z,50.80
2018-07-28T00:49:28.475Z,50.90
2018-07-28T00:50:02.280Z,51.20
2018-07-28T00:50:36.263Z,51.20
2018-07-28T00:51:10.050Z,51.20
2018-07-28T00:51:44.078Z,51.80
2018-07-28T00:52:17.983Z,51.70
2018-07-28T00:52:51.767Z,51.70
2018-07-28T00:53:25.731Z,51.70
2018-07-28T00:53:59.593Z,51.70
2018-07-28T00:54:33.457Z,52.60
2018-07-28T00:55:07.832Z,51.90
2018-07-28T00:55:41.504Z,52.10
2018-07-28T00:56:15.243Z,52.00
2018-07-28T00:56:49.207Z,52.10
2018-07-28T00:57:23.034Z,52.10
2018-07-28T00:57:56.899Z,51.90
2018-07-28T00:58:30.850Z,51.90
2018-07-28T00:59:04.755Z,51.80
2018-07-28T00:59:38.611Z,51.90
2018-07-28T01:00:12.253Z,52.00
2018-07-28T01:00:46.196Z,52.00
2018-07-28T01:01:19.932Z,52.00
2018-07-28T01:01:53.831Z,52.20
2018-07-28T01:02:27.727Z,52.50
2018-07-28T01:03:01.440Z,52.40
2018-07-28T01:03:35.226Z,52.40
2018-07-28T01:04:09.056Z,52.40
2018-07-28T01:04:43.100Z,52.60
2018-07-28T01:05:17.140Z,52.70
2018-07-28T01:05:51.935Z,52.80
2018-07-28T01:06:25.703Z,52.90
2018-07-28T01:06:59.366Z,52.90
2018-07-28T01:07:33.105Z,53.00
2018-07-28T01:08:06.918Z,53.10
2018-07-28T01:08:40.655Z,53.00
2018-07-28T01:09:14.888Z,53.10
2018-07-28T01:09:49.585Z,53.10
2018-07-28T01:10:23.467Z,53.10
2018-07-28T01:10:57.489Z,53.20
2018-07-28T01:11:31.188Z,53.20
2018-07-28T01:12:05.381Z,53.00
2018-07-28T01:12:39.036Z,52.80
2018-07-28T01:13:12.731Z,53.50
2018-07-28T01:13:46.728Z,53.10
2018-07-28T01:14:21.353Z,53.00
2018-07-28T01:14:55.363Z,53.00
2018-07-28T01:15:29.160Z,53.00
2018-07-28T01:16:03.155Z,53.10
2018-07-28T01:16:36.879Z,53.00
2018-07-28T01:17:10.607Z,53.00
2018-07-28T01:17:44.603Z,53.00
2018-07-28T01:18:18.537Z,53.20
2018-07-28T01:18:52.617Z,53.20
2018-07-28T01:19:26.475Z,53.40
2018-07-28T01:20:00.186Z,53.50
2018-07-28T01:20:34.117Z,53.60
2018-07-28T01:21:08.041Z,53.60
2018-07-28T01:21:41.920Z,53.60
2018-07-28T01:22:15.739Z,53.70
2018-07-28T01:22:49.565Z,53.60
2018-07-28T01:23:23.452Z,53.80
2018-07-28T01:23:57.527Z,53.90
2018-07-28T01:24:31.353Z,53.80
2018-07-28T01:25:06.599Z,53.70
2018-07-28T01:25:40.275Z,53.90
2018-07-28T01:26:13.974Z,53.90
2018-07-28T01:26:47.600Z,53.90
2018-07-28T01:27:21.529Z,54.10
2018-07-28T01:27:55.842Z,54.10
2018-07-28T01:28:29.747Z,54.30
2018-07-28T01:29:09.220Z,54.00
2018-07-28T01:29:43.199Z,54.00
2018-07-28T01:30:23.265Z,54.10
2018-07-28T01:30:57.059Z,54.10
2018-07-28T01:31:30.928Z,54.00
2018-07-28T01:32:05.000Z,54.10
2018-07-28T01:32:38.787Z,54.30
2018-07-28T01:33:12.748Z,54.40
2018-07-28T01:33:46.643Z,54.50
2018-07-28T01:34:20.588Z,54.70
2018-07-28T01:34:54.668Z,54.90
2018-07-28T01:35:28.889Z,54.80
2018-07-28T01:36:02.692Z,55.00
2018-07-28T01:36:36.660Z,55.00
2018-07-28T01:37:10.324Z,55.00
2018-07-28T01:37:44.027Z,54.90
2018-07-28T01:38:17.767Z,55.00
2018-07-28T01:38:51.736Z,54.90
2018-07-28T01:39:25.431Z,54.90
2018-07-28T01:39:59.210Z,55.00
2018-07-28T01:40:33.180Z,55.10
2018-07-28T01:41:07.476Z,55.00
2018-07-28T01:41:42.040Z,55.00
2018-07-28T01:42:15.818Z,55.10
2018-07-28T01:42:49.717Z,55.10
2018-07-28T01:43:23.625Z,55.00
2018-07-28T01:43:57.610Z,55.20
2018-07-28T01:44:31.493Z,55.00
2018-07-28T01:45:06.823Z,55.00
2018-07-28T01:45:40.725Z,54.80
2018-07-28T01:46:14.725Z,55.40
2018-07-28T01:46:48.390Z,55.00
2018-07-28T01:47:22.603Z,55.70
2018-07-28T01:47:56.400Z,55.60
2018-07-28T01:48:30.294Z,55.70
2018-07-28T01:49:04.696Z,55.60
2018-07-28T01:49:38.454Z,55.70
2018-07-28T01:50:12.206Z,55.60
2018-07-28T01:50:46.096Z,56.10
2018-07-28T01:51:19.963Z,55.90
2018-07-28T01:51:53.963Z,55.60
2018-07-28T01:52:27.869Z,55.50
2018-07-28T01:53:01.648Z,55.30
2018-07-28T01:53:35.420Z,55.30
2018-07-28T01:54:09.367Z,55.50
2018-07-28T01:54:43.260Z,55.50
2018-07-28T01:55:17.128Z,55.40
2018-07-28T01:55:51.545Z,55.40
2018-07-28T01:56:25.997Z,55.60
2018-07-28T01:56:59.779Z,55.50
2018-07-28T01:57:33.944Z,55.70
2018-07-28T01:58:07.748Z,55.50
2018-07-28T01:58:41.432Z,55.90
2018-07-28T01:59:15.097Z,55.70
2018-07-28T01:59:48.936Z,55.80
2018-07-28T02:00:22.569Z,55.80
2018-07-28T02:00:56.363Z,55.70
2018-07-28T02:01:30.335Z,55.70
2018-07-28T02:02:04.120Z,55.70
2018-07-28T02:02:37.860Z,55.70
2018-07-28T02:03:11.807Z,55.50
2018-07-28T02:03:45.448Z,55.50
2018-07-28T02:04:19.139Z,55.50
2018-07-28T02:04:52.824Z,55.80
2018-07-28T02:05:26.836Z,55.90
2018-07-28T02:06:00.754Z,56.00
2018-07-28T02:06:34.607Z,56.00
2018-07-28T02:07:08.613Z,56.00
2018-07-28T02:07:42.511Z,56.00
2018-07-28T02:08:16.140Z,56.00
2018-07-28T02:08:49.806Z,56.00
2018-07-28T02:09:23.739Z,55.90
2018-07-28T02:09:57.576Z,56.00
2018-07-28T02:10:31.539Z,55.90
2018-07-28T02:11:05.480Z,55.90
2018-07-28T02:11:39.563Z,56.00
2018-07-28T02:12:13.240Z,56.00
2018-07-28T02:12:46.938Z,56.00
2018-07-28T02:13:20.736Z,56.00
2018-07-28T02:13:54.457Z,56.00
2018-07-28T02:14:28.276Z,56.10
2018-07-28T02:15:02.089Z,56.10
2018-07-28T02:15:35.952Z,56.30
2018-07-28T02:16:09.920Z,56.40
2018-07-28T02:16:43.758Z,56.30
2018-07-28T02:17:17.497Z,56.30
2018-07-28T02:17:51.532Z,56.40
2018-07-28T02:18:25.318Z,56.40
2018-07-28T02:18:59.124Z,56.30
2018-07-28T02:19:32.957Z,56.50
2018-07-28T02:20:07.775Z,56.30
2018-07-28T02:20:41.668Z,56.50
2018-07-28T02:21:15.782Z,56.70
2018-07-28T02:21:49.449Z,56.70
2018-07-28T02:22:23.259Z,56.80
2018-07-28T02:22:56.981Z,56.90
2018-07-28T02:23:30.899Z,57.10
2018-07-28T02:24:04.908Z,57.10
2018-07-28T02:24:38.881Z,57.00
2018-07-28T02:25:12.779Z,57.20
2018-07-28T02:25:46.589Z,57.20
2018-07-28T02:26:20.271Z,57.20
2018-07-28T02:26:53.991Z,57.30
2018-07-28T02:27:27.741Z,57.60
2018-07-28T02:28:01.592Z,57.50
2018-07-28T02:28:35.223Z,58.00
2018-07-28T02:29:09.699Z,57.90
2018-07-28T02:29:43.672Z,57.70
2018-07-28T02:30:17.492Z,57.80
2018-07-28T02:30:51.087Z,58.10
2018-07-28T02:31:25.356Z,58.10
2018-07-28T02:31:59.542Z,58.00
2018-07-28T02:32:34.286Z,58.00
2018-07-28T02:33:08.205Z,57.70
2018-07-28T02:33:41.916Z,57.80
2018-07-28T02:34:15.646Z,58.10
2018-07-28T02:34:49.778Z,58.40
2018-07-28T02:35:23.644Z,58.50
2018-07-28T02:35:57.620Z,58.30
2018-07-28T02:36:31.906Z,58.00
2018-07-28T02:37:06.100Z,58.60
2018-07-28T02:37:39.840Z,58.70
2018-07-28T02:38:13.690Z,58.50
2018-07-28T02:38:47.763Z,58.70
2018-07-28T02:39:21.449Z,58.80
2018-07-28T02:39:55.379Z,58.90
2018-07-28T02:40:28.975Z,59.00
2018-07-28T02:41:02.749Z,58.80
2018-07-28T02:41:36.515Z,59.60
2018-07-28T02:42:10.336Z,58.80
2018-07-28T02:42:44.053Z,58.90
2018-07-28T02:43:17.967Z,59.00
2018-07-28T02:43:51.831Z,58.80
2018-07-28T02:44:25.558Z,59.30
2018-07-28T02:44:59.615Z,59.50
2018-07-28T02:45:33.300Z,59.40
2018-07-28T02:46:07.317Z,59.20
2018-07-28T02:46:41.075Z,59.60
2018-07-28T02:47:14.807Z,59.80
2018-07-28T02:47:48.517Z,60.30
2018-07-28T02:48:22.172Z,61.00
2018-07-28T02:48:56.197Z,61.90
2018-07-28T02:49:30.019Z,62.80
2018-07-28T02:50:05.435Z,62.90
2018-07-28T02:50:39.010Z,63.40
2018-07-28T02:51:12.823Z,65.30
2018-07-28T02:51:46.533Z,66.00
2018-07-28T02:52:20.381Z,66.80
2018-07-28T02:52:54.240Z,66.60
2018-07-28T02:53:27.971Z,66.30
2018-07-28T02:54:01.770Z,66.70
2018-07-28T02:54:36.482Z,66.80
2018-07-28T02:55:10.282Z,66.90
2018-07-28T02:55:43.879Z,66.60
2018-07-28T02:56:17.511Z,67.00
2018-07-28T02:56:51.296Z,68.30
2018-07-28T02:57:31.836Z,69.10
2018-07-28T02:58:05.888Z,69.70
2018-07-28T02:58:40.091Z,70.50
2018-07-28T02:59:14.079Z,71.00
2018-07-28T02:59:47.903Z,71.00
2018-07-28T03:00:21.568Z,72.80
2018-07-28T03:00:55.601Z,73.10
2018-07-28T03:01:29.567Z,73.50
2018-07-28T03:02:03.563Z,74.10
2018-07-28T03:02:38.126Z,75.50
2018-07-28T03:03:12.362Z,75.90
2018-07-28T03:03:46.135Z,77.30
2018-07-28T03:04:19.860Z,77.60
2018-07-28T03:04:53.749Z,77.40
2018-07-28T03:05:27.536Z,78.10
2018-07-28T03:06:01.415Z,79.60
2018-07-28T03:06:35.341Z,80.30
2018-07-28T03:07:09.339Z,80.50
2018-07-28T03:07:43.111Z,81.40
2018-07-28T03:08:17.087Z,81.80
2018-07-28T03:08:50.832Z,82.60
2018-07-28T03:09:24.532Z,82.80
2018-07-28T03:09:58.348Z,82.60
2018-07-28T03:10:32.213Z,83.40
2018-07-28T03:11:06.301Z,83.40
2018-07-28T03:11:40.987Z,84.40
2018-07-28T03:12:14.982Z,85.50
2018-07-28T03:12:48.755Z,85.30
2018-07-28T03:13:22.515Z,86.80
2018-07-28T03:13:56.458Z,86.00
2018-07-28T03:14:30.220Z,89.40
2018-07-28T03:15:33.243Z,89.40
2018-07-28T03:16:10.737Z,89.90
2018-07-28T03:16:44.436Z,90.60
2018-07-28T03:17:18.282Z,90.80
2018-07-28T03:17:52.147Z,91.30
2018-07-28T03:18:26.396Z,91.60
2018-07-28T03:19:00.255Z,91.70
2018-07-28T03:19:34.182Z,91.50
2018-07-28T03:20:09.016Z,92.30
2018-07-28T03:20:42.759Z,92.30
2018-07-28T03:21:16.593Z,92.60
2018-07-28T03:21:50.367Z,93.30
2018-07-28T03:22:23.999Z,93.60
2018-07-28T03:22:58.164Z,93.20
2018-07-28T03:23:32.158Z,94.20
2018-07-28T03:24:05.995Z,94.50
2018-07-28T03:24:39.789Z,95.00
2018-07-28T03:25:14.051Z,95.20
2018-07-28T03:25:48.049Z,95.50
2018-07-28T03:26:21.887Z,95.30
2018-07-28T03:26:55.820Z,95.70
2018-07-28T03:27:29.579Z,95.90
2018-07-28T03:28:03.349Z,96.30
2018-07-28T03:28:37.324Z,96.60
2018-07-28T03:29:11.291Z,96.60
2018-07-28T03:29:45.476Z,96.70
2018-07-28T03:30:19.500Z,96.90
2018-07-28T03:30:53.500Z,97.50
2018-07-28T03:31:27.263Z,97.60
2018-07-28T03:32:01.285Z,97.90
2018-07-28T03:32:34.975Z,98.40
2018-07-28T03:33:08.785Z,98.70
2018-07-28T03:33:42.585Z,98.70
2018-07-28T03:34:16.415Z,98.90
2018-07-28T03:34:50.116Z,98.90
2018-07-28T03:35:24.931Z,99.50
2018-07-28T03:35:58.783Z,99.80
2018-07-28T03:36:32.723Z,99.90
2018-07-28T03:37:06.595Z,99.90
2018-07-28T03:37:40.355Z,99.90
2018-07-28T03:38:14.562Z,99.90
2018-07-28T03:38:48.450Z,99.90
2018-07-28T03:39:22.310Z,99.90
2018-07-28T03:39:56.327Z,99.90
2018-07-28T03:40:30.079Z,99.90
2018-07-28T03:41:03.867Z,99.90
2018-07-28T03:41:37.723Z,99.90
2018-07-28T03:42:11.644Z,99.90
2018-07-28T03:42:45.363Z,99.90
2018-07-28T03:43:19.391Z,99.90
2018-07-28T03:43:53.079Z,99.90
2018-07-28T03:44:27.011Z,99.90
2018-07-28T03:45:00.723Z,99.90
2018-07-28T03:45:34.570Z,99.90
2018-07-28T03:46:08.371Z,99.90
2018-07-28T03:46:42.222Z,99.90
2018-07-28T03:47:16.184Z,99.90
2018-07-28T03:47:50.137Z,99.90
2018-07-28T03:48:23.768Z,99.90
2018-07-28T03:48:57.467Z,99.90
2018-07-28T03:49:31.380Z,99.90
2018-07-28T03:50:05.725Z,99.90
2018-07-28T03:50:39.444Z,99.90
2018-07-28T03:51:13.254Z,99.90
2018-07-28T03:51:47.133Z,99.90
2018-07-28T03:52:20.885Z,99.90
2018-07-28T03:52:54.779Z,99.90
2018-07-28T03:53:28.538Z,99.90
2018-07-28T03:54:02.364Z,99.90
2018-07-28T03:54:36.380Z,99.90
2018-07-28T03:55:10.663Z,99.90
2018-07-28T03:55:44.709Z,99.90
2018-07-28T03:56:18.673Z,99.90
2018-07-28T03:56:53.008Z,99.90
2018-07-28T03:57:26.823Z,99.90
2018-07-28T03:58:00.699Z,99.90
2018-07-28T03:58:34.536Z,99.90
2018-07-28T03:59:08.634Z,99.90
2018-07-28T03:59:42.349Z,99.90
2018-07-28T04:00:16.607Z,99.90
2018-07-28T04:00:50.399Z,99.90
2018-07-28T04:01:24.245Z,99.90
2018-07-28T04:01:58.081Z,99.90
2018-07-28T04:02:31.920Z,99.90
2018-07-28T04:03:05.837Z,99.90
2018-07-28T04:03:39.893Z,99.90
2018-07-28T04:04:13.672Z,99.90
2018-07-28T04:04:47.691Z,99.90
2018-07-28T04:05:21.784Z,99.90
2018-07-28T04:05:55.604Z,99.90
2018-07-28T04:06:29.759Z,99.90
2018-07-28T04:07:03.776Z,99.90
2018-07-28T04:07:37.507Z,99.90
2018-07-28T04:08:11.143Z,99.90
2018-07-28T04:08:44.955Z,99.90
2018-07-28T04:09:18.929Z,99.90
2018-07-28T04:09:52.762Z,99.90
2018-07-28T04:10:26.762Z,99.90
2018-07-28T04:11:00.543Z,99.90
2018-07-28T04:11:34.283Z,99.90
2018-07-28T04:12:08.203Z,99.90
2018-07-28T04:12:42.828Z,99.90
2018-07-28T04:13:17.762Z,99.90
2018-07-28T04:13:51.467Z,99.90
2018-07-28T04:14:25.366Z,99.90
2018-07-28T04:14:59.217Z,99.90
2018-07-28T04:15:33.227Z,99.90
2018-07-28T04:16:06.925Z,99.90
2018-07-28T04:16:40.780Z,99.90
2018-07-28T04:17:14.498Z,99.90
2018-07-28T04:17:55.255Z,99.90
2018-07-28T04:18:29.097Z,99.90
2018-07-28T04:19:02.993Z,99.90
2018-07-28T04:19:36.627Z,99.90
2018-07-28T04:20:10.323Z,99.90
2018-07-28T04:20:44.152Z,99.90
2018-07-28T04:21:18.300Z,99.90
2018-07-28T04:21:52.171Z,99.90
2018-07-28T04:22:26.000Z,99.90
2018-07-28T04:22:59.764Z,99.90
2018-07-28T04:23:33.455Z,99.90
2018-07-28T04:24:07.164Z,99.90
2018-07-28T04:24:41.164Z,99.90
2018-07-28T04:25:14.780Z,99.90
2018-07-28T04:25:48.859Z,99.90
2018-07-28T04:26:22.538Z,99.90
2018-07-28T04:26:56.480Z,99.90
2018-07-28T04:27:30.415Z,99.90
2018-07-28T04:28:04.425Z,99.90
2018-07-28T04:28:38.340Z,99.90
2018-07-28T04:29:12.008Z,99.90
2018-07-28T04:29:45.958Z,99.90
2018-07-28T04:30:19.760Z,99.90
2018-07-28T04:30:53.444Z,99.90
2018-07-28T04:31:27.351Z,99.90
2018-07-28T04:32:00.989Z,99.90
2018-07-28T04:32:35.162Z,99.90
2018-07-28T04:33:08.821Z,99.90
2018-07-28T04:33:42.751Z,99.90
2018-07-28T04:34:16.568Z,99.90
2018-07-28T04:34:50.544Z,99.90
2018-07-28T04:35:24.508Z,99.90
2018-07-28T04:35:58.439Z,99.90
2018-07-28T04:36:32.319Z,99.90
2018-07-28T04:37:06.414Z,99.90
2018-07-28T04:37:40.166Z,99.90
2018-07-28T04:38:14.119Z,99.90
2018-07-28T04:38:47.806Z,99.90
2018-07-28T04:39:21.603Z,99.90
2018-07-28T04:39:55.374Z,99.90
2018-07-28T04:40:29.250Z,99.90
2018-07-28T04:41:03.118Z,99.90
2018-07-28T04:41:37.220Z,99.90
2018-07-28T04:42:10.964Z,99.90
2018-07-28T04:42:44.749Z,99.90
2018-07-28T04:43:18.628Z,99.90
2018-07-28T04:43:52.652Z,99.90
2018-07-28T04:44:26.791Z,99.90
2018-07-28T04:45:00.544Z,99.90
2018-07-28T04:45:34.540Z,99.90
2018-07-28T04:46:08.370Z,99.90
2018-07-28T04:46:41.978Z,99.90
2018-07-28T04:47:15.709Z,99.90
2018-07-28T04:47:50.452Z,99.90
2018-07-28T04:48:24.184Z,99.90
2018-07-28T04:48:57.984Z,99.90
2018-07-28T04:49:31.704Z,99.90
2018-07-28T04:50:05.698Z,99.90
2018-07-28T04:50:39.285Z,99.90
2018-07-28T04:51:13.055Z,99.90
2018-07-28T04:51:46.932Z,99.90
2018-07-28T04:52:20.815Z,99.90
2018-07-28T04:52:54.488Z,99.90
2018-07-28T04:53:28.563Z,99.90
2018-07-28T04:54:02.389Z,99.90
2018-07-28T04:54:36.164Z,99.90
2018-07-28T04:55:10.020Z,99.90
2018-07-28T04:55:43.787Z,99.90
2018-07-28T04:56:17.823Z,99.90
2018-07-28T04:56:52.396Z,99.90
2018-07-28T04:57:26.650Z,99.90
2018-07-28T04:58:00.451Z,99.90
2018-07-28T04:58:34.626Z,99.90
2018-07-28T04:59:08.447Z,99.90
2018-07-28T04:59:42.731Z,99.90
2018-07-28T05:00:16.502Z,99.90
2018-07-28T05:00:50.159Z,99.90
2018-07-28T05:01:23.980Z,99.90
2018-07-28T05:01:57.975Z,99.90
2018-07-28T05:02:31.690Z,99.90
2018-07-28T05:03:05.670Z,99.90
2018-07-28T05:03:39.435Z,99.90
2018-07-28T05:04:13.181Z,99.90
2018-07-28T05:04:47.059Z,99.90
2018-07-28T05:05:21.187Z,99.90
2018-07-28T05:05:55.060Z,99.90
2018-07-28T05:06:29.132Z,99.90
2018-07-28T05:07:03.247Z,99.90
2018-07-28T05:07:37.023Z,99.90
2018-07-28T05:08:10.797Z,99.90
2018-07-28T05:08:44.569Z,99.90
2018-07-28T05:09:18.419Z,99.90
2018-07-28T05:09:52.620Z,99.90
2018-07-28T05:10:26.665Z,99.90
2018-07-28T05:11:00.346Z,99.90
2018-07-28T05:11:34.687Z,99.90
2018-07-28T05:12:08.424Z,99.90
2018-07-28T05:12:42.273Z,99.90
2018-07-28T05:13:15.869Z,99.90
2018-07-28T05:13:49.899Z,99.90
2018-07-28T05:14:23.695Z,99.90
2018-07-28T05:14:57.745Z,99.90
2018-07-28T05:15:31.693Z,99.90
2018-07-28T05:16:05.820Z,99.90
2018-07-28T05:16:39.649Z,99.90
2018-07-28T05:17:13.492Z,99.90
2018-07-28T05:17:47.335Z,99.90
2018-07-28T05:18:21.366Z,99.90
2018-07-28T05:18:55.280Z,99.90
2018-07-28T05:19:30.180Z,99.90
2018-07-28T05:20:04.335Z,99.90
2018-07-28T05:20:38.096Z,99.90
2018-07-28T05:21:12.344Z,99.90
2018-07-28T05:21:46.089Z,99.90
2018-07-28T05:22:19.895Z,99.90
2018-07-28T05:22:53.574Z,99.90
2018-07-28T05:23:27.442Z,99.90
2018-07-28T05:24:01.285Z,99.90
2018-07-28T05:24:35.726Z,99.90
2018-07-28T05:25:09.501Z,99.90
2018-07-28T05:25:43.219Z,99.90
2018-07-28T05:26:16.860Z,99.90
2018-07-28T05:26:50.667Z,99.90
2018-07-28T05:27:24.539Z,99.90
2018-07-28T05:27:58.352Z,99.90
2018-07-28T05:28:32.661Z,99.90
2018-07-28T05:29:06.451Z,99.90
2018-07-28T05:29:40.498Z,99.90
2018-07-28T05:30:14.296Z,99.90
2018-07-28T05:30:48.024Z,99.90
2018-07-28T05:31:22.912Z,99.90
2018-07-28T05:31:56.738Z,99.90
2018-07-28T05:32:30.937Z,99.90
2018-07-28T05:33:05.000Z,99.90
2018-07-28T05:33:38.842Z,99.90
2018-07-28T05:34:12.490Z,99.90
2018-07-28T05:34:46.348Z,99.90
2018-07-28T05:35:20.149Z,99.90
2018-07-28T05:35:54.627Z,99.90
2018-07-28T05:36:28.507Z,99.90
2018-07-28T05:37:02.510Z,99.90
2018-07-28T05:37:36.471Z,99.90
2018-07-28T05:38:10.180Z,99.90
2018-07-28T05:38:44.014Z,99.90
2018-07-28T05:39:17.811Z,99.90
2018-07-28T05:39:52.739Z,99.90
2018-07-28T05:40:26.651Z,99.90
2018-07-28T05:41:00.470Z,99.90
2018-07-28T05:41:34.592Z,99.90
2018-07-28T05:42:08.407Z,99.90
2018-07-28T05:42:42.247Z,99.90
2018-07-28T05:43:16.195Z,99.90
2018-07-28T05:43:50.155Z,99.90
2018-07-28T05:44:23.934Z,99.90
2018-07-28T05:44:57.656Z,99.90
2018-07-28T05:45:31.842Z,99.90
2018-07-28T05:46:05.767Z,99.90
2018-07-28T05:46:39.660Z,99.90
2018-07-28T05:47:13.644Z,99.90
2018-07-28T05:47:47.479Z,99.90
2018-07-28T05:48:21.349Z,99.90
2018-07-28T05:48:55.219Z,99.90
2018-07-28T05:49:29.217Z,99.90
2018-07-28T05:50:03.232Z,99.90
2018-07-28T05:50:37.221Z,99.90
2018-07-28T05:51:11.320Z,99.90
2018-07-28T05:51:45.017Z,99.90
2018-07-28T05:52:18.867Z,99.90
2018-07-28T05:52:52.999Z,99.90
2018-07-28T05:53:26.768Z,99.90
2018-07-28T05:54:00.561Z,99.90
2018-07-28T05:54:34.457Z,99.90
2018-07-28T05:55:08.394Z,99.90
2018-07-28T05:55:42.567Z,99.90
2018-07-28T05:56:16.299Z,99.90
2018-07-28T05:56:50.052Z,99.90
2018-07-28T05:57:23.947Z,99.90
2018-07-28T05:57:57.921Z,99.90
2018-07-28T05:58:32.700Z,99.90
2018-07-28T05:59:06.611Z,99.90
2018-07-28T05:59:40.424Z,99.90
2018-07-28T06:00:14.253Z,99.90
2018-07-28T06:00:48.250Z,99.90
2018-07-28T06:01:22.435Z,99.90
2018-07-28T06:01:56.511Z,99.90
2018-07-28T06:02:30.465Z,99.90
2018-07-28T06:03:06.476Z,99.90
2018-07-28T06:03:40.386Z,99.90
2018-07-28T06:04:14.237Z,99.90
2018-07-28T06:04:47.988Z,99.90
2018-07-28T06:05:21.975Z,99.90
2018-07-28T06:05:55.854Z,99.90
2018-07-28T06:06:29.839Z,99.90
2018-07-28T06:07:04.582Z,99.90
2018-07-28T06:07:38.388Z,99.90
2018-07-28T06:08:12.380Z,99.90
2018-07-28T06:08:46.443Z,99.90
2018-07-28T06:09:20.479Z,99.90
2018-07-28T06:09:54.537Z,99.90
2018-07-28T06:10:28.236Z,99.90
2018-07-28T06:11:02.334Z,99.90
2018-07-28T06:11:37.282Z,99.90
2018-07-28T06:12:11.218Z,99.90
2018-07-28T06:12:45.183Z,99.90
2018-07-28T06:13:18.920Z,99.90
2018-07-28T06:13:52.734Z,99.90
2018-07-28T06:14:26.461Z,99.90
2018-07-28T06:15:00.395Z,99.90
2018-07-28T06:15:34.131Z,99.90
2018-07-28T06:16:08.229Z,99.90
2018-07-28T06:16:42.124Z,99.90
2018-07-28T06:17:15.968Z,99.90
2018-07-28T06:17:49.779Z,99.90
2018-07-28T06:18:23.627Z,99.90
2018-07-28T06:18:57.474Z,99.90
2018-07-28T06:19:31.368Z,99.90
2018-07-28T06:20:07.011Z,99.90
2018-07-28T06:20:40.881Z,99.90
2018-07-28T06:21:14.792Z,99.90
2018-07-28T06:21:48.847Z,99.90
2018-07-28T06:22:23.073Z,99.90
2018-07-28T06:22:57.766Z,99.90
2018-07-28T06:23:31.679Z,99.90
2018-07-28T06:24:05.591Z,99.90
2018-07-28T06:24:39.180Z,99.90
2018-07-28T06:25:12.936Z,99.90
2018-07-28T06:25:46.791Z,99.90
2018-07-28T06:26:20.616Z,99.90
2018-07-28T06:26:54.615Z,99.90
2018-07-28T06:27:28.735Z,99.90
2018-07-28T06:28:02.792Z,99.90
2018-07-28T06:28:36.869Z,99.90
2018-07-28T06:29:10.611Z,99.90
2018-07-28T06:29:44.516Z,99.90
2018-07-28T06:30:18.436Z,99.90
2018-07-28T06:30:52.530Z,99.90
2018-07-28T06:31:26.484Z,99.90
2018-07-28T06:32:00.458Z,99.90
2018-07-28T06:32:34.199Z,99.90
2018-07-28T06:33:07.845Z,99.90
2018-07-28T06:33:41.836Z,99.90
2018-07-28T06:34:15.719Z,99.90
2018-07-28T06:34:49.474Z,99.90
2018-07-28T06:35:23.404Z,99.90
2018-07-28T06:35:57.420Z,99.90
2018-07-28T06:36:31.426Z,99.90
2018-07-28T06:37:05.493Z,99.90
2018-07-28T06:37:39.766Z,99.90
2018-07-28T06:38:13.548Z,99.90
2018-07-28T06:38:47.295Z,99.90
2018-07-28T06:39:21.159Z,99.90
2018-07-28T06:39:55.130Z,99.90
2018-07-28T06:40:29.089Z,99.90
2018-07-28T06:41:03.176Z,99.90
2018-07-28T06:41:37.232Z,99.90
2018-07-28T06:42:11.096Z,99.90
2018-07-28T06:42:45.072Z,99.90
2018-07-28T06:43:18.920Z,99.90
2018-07-28T06:43:52.884Z,99.90
2018-07-28T06:44:26.931Z,99.90
2018-07-28T06:45:01.167Z,99.90
2018-07-28T06:45:34.890Z,99.90
2018-07-28T06:46:08.899Z,99.90
2018-07-28T06:46:42.731Z,99.90
2018-07-28T06:47:17.066Z,99.90
2018-07-28T06:47:50.952Z,99.90
2018-07-28T06:48:24.643Z,99.90
2018-07-28T06:48:58.907Z,99.90
2018-07-28T06:49:32.893Z,99.90
2018-07-28T06:50:06.909Z,99.90
2018-07-28T06:50:40.762Z,99.90
2018-07-28T06:51:14.732Z,99.90
2018-07-28T06:51:48.395Z,99.90
2018-07-28T06:52:22.240Z,99.90
2018-07-28T06:52:55.975Z,99.90
2018-07-28T06:53:30.167Z,99.90
2018-07-28T06:54:04.768Z,99.90
2018-07-28T06:54:38.684Z,99.90
2018-07-28T06:55:12.472Z,99.90
2018-07-28T06:55:46.334Z,99.90
2018-07-28T06:56:20.147Z,99.90
2018-07-28T06:56:53.848Z,99.90
2018-07-28T06:57:28.435Z,99.90
2018-07-28T06:58:02.742Z,99.90
2018-07-28T06:58:36.790Z,99.90
2018-07-28T06:59:10.532Z,99.90
2018-07-28T06:59:44.384Z,99.90
2018-07-28T07:00:18.120Z,99.90
2018-07-28T07:00:51.993Z,99.90
2018-07-28T07:01:26.000Z,99.90
2018-07-28T07:02:00.179Z,99.90
2018-07-28T07:02:33.880Z,99.90
2018-07-28T07:03:07.678Z,99.90
2018-07-28T07:03:41.546Z,99.90
2018-07-28T07:04:15.401Z,99.90
2018-07-28T07:04:49.415Z,99.90
2018-07-28T07:05:23.375Z,99.90
2018-07-28T07:05:57.262Z,99.90
2018-07-28T07:06:31.383Z,99.90
2018-07-28T07:07:05.268Z,99.90
2018-07-28T07:07:39.074Z,99.90
2018-07-28T07:08:13.065Z,99.90
2018-07-28T07:08:46.810Z,99.90
2018-07-28T07:09:21.091Z,99.90
2018-07-28T07:09:54.695Z,99.90
2018-07-28T07:10:28.536Z,99.90
2018-07-28T07:11:02.567Z,99.90
2018-07-28T07:11:36.626Z,99.90
2018-07-28T07:12:10.515Z,99.90
2018-07-28T07:12:45.098Z,99.90
2018-07-28T07:13:19.227Z,99.90
2018-07-28T07:13:53.044Z,99.90
2018-07-28T07:14:27.242Z,99.90
2018-07-28T07:15:00.912Z,99.90
2018-07-28T07:15:34.758Z,99.90
2018-07-28T07:16:08.745Z,99.90
2018-07-28T07:16:42.457Z,99.90
2018-07-28T07:17:16.797Z,99.90
2018-07-28T07:17:50.445Z,99.90
2018-07-28T07:18:24.175Z,99.90